Accueil
METAR-TAF:

METAR-TAF

Aéroports :

Grenoble, France

Aéroport de Grenoble-Isère

latitude: 45-22N, longitude: 005-20E, altitude: 384 m

Observation

Le bulletin a été fait il y a 29 minutes, à 22:30 UTC
Vent 3 kt de est/sud-est, variant entre est/nord-est et sud-est
Température 13°C
Humidité 62%
Pression 1024 hPa
Visibilité 10 km ou plus
pas de nuages en-dessous de 1500 mètres et pas de cumulonimbus.

METAR: LFLS 202230Z AUTO 11003KT 070V140 CAVOK 13/06 Q1024

Heure: 00:59 (22:59 UTC)

Prévision

Le bulletin a été fait il y a 8 heures et 59 minutes, à 14:00 UTC
Prévision valable du 20 à 15 UTC au 21 à 15 UTC
Vent 10 kt de nord
Visibilité 10 km ou plus
pas de nuages en-dessous de 1500 mètres et pas de cumulonimbus.
Evoluant progressivement
du 21 à 00 UTC au 21 à 02 UTC
Vent 3 kt de direction variable

TAF: LFLS 201400Z 2015/2115 36010KT CAVOK BECMG 2100/2102 VRB03KT

Observations et prévisions météorologiques de plus de 4000 aéroports (messages METAR et TAF).

Les stations disponibles sont représentées par des disques jaunes et rouges sur la carte.

Passer la souris dessus pour voir le nom de la station.

Cliquer dessus pour voir les observations et prévisions météorologiques.

Pour changer de carte: cliquez sur les boutons verts avec une croix noire pour zoomer, sur le bouton vert avec un tiret pour effectuer un zoom arrière, ou sur les flèches vertes pour les cartes adjacentes.


METAR-TAF: